createdAt,value
2023-04-12T00:04:16.610Z,1.85
2023-04-12T00:09:19.919Z,2.03
2023-04-12T00:14:23.103Z,1.67
2023-04-12T00:19:27.912Z,1.98
2023-04-12T00:24:30.791Z,2.67
2023-04-12T00:29:33.869Z,1.20
2023-04-12T00:34:36.393Z,1.60
2023-04-12T00:39:39.257Z,1.88
2023-04-12T00:44:42.017Z,1.38
2023-04-12T00:49:44.892Z,1.45
2023-04-12T00:54:47.774Z,2.60
2023-04-12T00:59:52.499Z,4.45
2023-04-12T01:04:55.124Z,1.65
2023-04-12T01:10:22.408Z,1.52
2023-04-12T01:15:26.992Z,2.10
2023-04-12T01:20:36.315Z,3.25
2023-04-12T01:26:03.161Z,4.40
2023-04-12T01:31:09.041Z,3.30
2023-04-12T01:36:14.731Z,2.30
2023-04-12T01:41:17.395Z,2.88
2023-04-12T01:46:23.390Z,2.53
2023-04-12T01:51:57.086Z,4.75
2023-04-12T01:57:05.098Z,2.50
2023-04-12T02:02:09.756Z,3.85
2023-04-12T02:07:14.863Z,5.13
2023-04-12T02:12:17.622Z,6.10
2023-04-12T02:17:21.388Z,5.22
2023-04-12T02:22:24.475Z,3.10
2023-04-12T02:27:27.714Z,2.83
2023-04-12T02:32:31.287Z,2.83
2023-04-12T02:37:34.161Z,7.57
2023-04-12T02:42:37.267Z,7.68
2023-04-12T02:47:41.890Z,8.98
2023-04-12T02:52:47.250Z,4.68
2023-04-12T02:57:50.599Z,4.53
2023-04-12T03:02:54.280Z,4.10
2023-04-12T03:08:03.088Z,6.68
2023-04-12T03:13:14.842Z,3.78
2023-04-12T03:18:22.018Z,2.83
2023-04-12T03:23:26.463Z,3.22
2023-04-12T03:28:45.994Z,2.83
2023-04-12T03:33:49.096Z,3.03
2023-04-12T03:38:58.550Z,2.60
2023-04-12T03:44:01.967Z,2.00
2023-04-12T03:49:06.455Z,1.55
2023-04-12T03:54:11.152Z,2.10
2023-04-12T03:59:29.892Z,1.80
2023-04-12T04:04:33.734Z,1.40
2023-04-12T04:09:41.878Z,2.72
2023-04-12T04:14:46.394Z,1.70
2023-04-12T04:19:58.999Z,1.50
2023-04-12T04:25:02.669Z,1.48
2023-04-12T04:30:10.723Z,1.67
2023-04-12T04:35:19.123Z,1.42
2023-04-12T04:40:44.773Z,1.05
2023-04-12T04:45:49.721Z,2.10
2023-04-12T04:50:53.856Z,1.55
2023-04-12T04:55:59.721Z,1.20
2023-04-12T05:01:07.746Z,1.60
2023-04-12T05:06:11.636Z,1.80
2023-04-12T05:11:14.719Z,4.57
2023-04-12T05:16:17.410Z,4.60
2023-04-12T05:21:20.084Z,2.00
2023-04-12T05:26:24.433Z,1.60
2023-04-12T05:31:28.956Z,1.40
2023-04-12T05:36:34.908Z,2.45
2023-04-12T05:41:39.508Z,1.77
2023-04-12T05:46:42.501Z,1.52
2023-04-12T05:51:45.360Z,2.15
2023-04-12T05:56:55.712Z,1.80
2023-04-12T06:02:01.144Z,1.67
2023-04-12T06:07:07.928Z,1.73
2023-04-12T06:12:13.790Z,2.47
2023-04-12T06:17:18.591Z,3.75
2023-04-12T06:22:21.442Z,5.63
2023-04-12T06:27:25.931Z,2.00
2023-04-12T06:32:29.214Z,1.92
2023-04-12T06:37:32.247Z,2.08
2023-04-12T06:42:35.641Z,2.50
2023-04-12T06:47:38.504Z,2.70
2023-04-12T06:52:41.271Z,3.00
2023-04-12T06:57:44.986Z,3.25
2023-04-12T07:07:50.727Z,3.80
2023-04-12T07:12:53.463Z,6.70
2023-04-12T07:17:56.564Z,6.78
2023-04-12T07:23:00.828Z,9.93
2023-04-12T07:28:03.816Z,10.60
2023-04-12T07:33:18.433Z,3.40
2023-04-12T07:38:21.838Z,13.20
2023-04-12T07:43:24.653Z,7.65
2023-04-12T07:48:27.320Z,2.85
2023-04-12T07:53:29.968Z,4.32
2023-04-12T07:58:33.853Z,5.70
2023-04-12T08:03:39.065Z,3.88
2023-04-12T08:08:42.657Z,3.22
2023-04-12T08:13:46.688Z,1.65
2023-04-12T08:18:50.448Z,1.73
2023-04-12T08:23:53.010Z,2.35
2023-04-12T08:28:56.005Z,2.20
2023-04-12T08:34:00.143Z,1.85
2023-04-12T08:39:03.523Z,2.47
2023-04-12T08:44:06.310Z,1.50
2023-04-12T08:49:09.141Z,2.05
2023-04-12T08:54:11.760Z,2.28
2023-04-12T08:59:16.605Z,2.38
2023-04-12T09:04:19.285Z,1.83
2023-04-12T09:09:45.168Z,1.80
2023-04-12T09:14:47.904Z,1.52
2023-04-12T09:19:51.050Z,2.35
2023-04-12T09:24:53.837Z,1.35
2023-04-12T09:30:10.283Z,2.00
2023-04-12T09:35:12.884Z,1.67
2023-04-12T09:40:17.119Z,1.55
2023-04-12T09:45:26.709Z,1.63
2023-04-12T09:50:33.731Z,2.85
2023-04-12T09:55:37.292Z,1.80
2023-04-12T10:00:40.869Z,1.55
2023-04-12T10:05:43.599Z,1.70
2023-04-12T10:10:47.032Z,1.67
2023-04-12T10:15:52.310Z,1.63
2023-04-12T10:20:55.904Z,1.60
2023-04-12T10:26:00.442Z,1.33
2023-04-12T10:31:30.859Z,1.60
2023-04-12T10:36:56.771Z,1.80
2023-04-12T10:42:23.208Z,1.75
2023-04-12T10:47:49.189Z,1.70
2023-04-12T10:53:13.003Z,1.45
2023-04-12T10:58:51.587Z,2.60
2023-04-12T11:04:16.567Z,1.77
2023-04-12T11:09:29.701Z,1.85
2023-04-12T11:14:43.986Z,1.70
2023-04-12T11:19:53.824Z,2.10
2023-04-12T11:25:00.099Z,0.98
2023-04-12T11:30:05.633Z,1.92
2023-04-12T11:35:13.284Z,1.70
2023-04-12T11:40:16.307Z,3.03
2023-04-12T11:45:21.849Z,2.00
2023-04-12T11:50:31.292Z,1.65
2023-04-12T11:55:34.528Z,1.83
2023-04-12T12:00:38.832Z,2.05
2023-04-12T12:11:37.167Z,1.63
2023-04-12T12:16:42.194Z,2.10
2023-04-12T12:21:47.562Z,1.85
2023-04-12T12:26:52.177Z,2.25
2023-04-12T12:31:58.562Z,2.15
2023-04-12T12:37:09.548Z,2.83
2023-04-12T12:42:16.134Z,1.80
2023-04-12T12:47:20.859Z,2.83
2023-04-12T12:52:23.898Z,1.58
2023-04-12T12:57:29.015Z,1.73
2023-04-12T13:02:32.568Z,1.13
2023-04-12T13:07:36.509Z,1.70
2023-04-12T13:17:45.275Z,2.22
2023-04-12T13:22:48.385Z,2.22
2023-04-12T13:28:10.301Z,2.30
2023-04-12T13:33:19.153Z,2.00
2023-04-12T13:38:23.849Z,4.07
2023-04-12T13:43:26.901Z,2.13
2023-04-12T13:48:29.737Z,1.60
2023-04-12T13:53:32.657Z,3.55
2023-04-12T13:58:35.637Z,2.90
2023-04-12T14:03:57.397Z,1.67
2023-04-12T14:09:00.259Z,1.88
2023-04-12T14:14:03.716Z,1.80
2023-04-12T14:19:11.993Z,1.80
2023-04-12T14:24:19.117Z,1.30
2023-04-12T14:29:22.902Z,1.75
2023-04-12T14:34:25.814Z,1.20
2023-04-12T14:39:31.173Z,1.35
2023-04-12T14:44:35.893Z,1.88
2023-04-12T14:49:42.175Z,1.30
2023-04-12T14:54:45.986Z,1.65
2023-04-12T14:59:48.843Z,2.15
2023-04-12T15:04:52.096Z,1.92
2023-04-12T15:09:57.585Z,1.73
2023-04-12T15:15:01.021Z,1.50
2023-04-12T15:20:11.820Z,1.50
2023-04-12T15:25:15.639Z,2.28
2023-04-12T15:30:19.947Z,1.58
2023-04-12T15:35:26.835Z,1.70
2023-04-12T15:40:33.312Z,1.35
2023-04-12T15:45:36.124Z,1.70
2023-04-12T15:50:41.411Z,1.45
2023-04-12T15:55:58.716Z,1.67
2023-04-12T16:01:01.538Z,1.98
2023-04-12T16:06:07.870Z,1.30
2023-04-12T16:11:12.520Z,1.73
2023-04-12T16:16:18.279Z,1.65
2023-04-12T16:21:45.184Z,1.40
2023-04-12T16:27:05.091Z,1.27
2023-04-12T16:32:25.864Z,1.50
2023-04-12T16:37:42.673Z,1.10
2023-04-12T16:42:46.256Z,2.17
2023-04-12T16:47:50.028Z,1.30
2023-04-12T16:53:12.060Z,1.98
2023-04-12T16:58:15.993Z,1.25
2023-04-12T17:03:21.806Z,2.22
2023-04-12T17:08:24.660Z,2.00
2023-04-12T17:13:31.113Z,1.83
2023-04-12T17:18:35.014Z,1.40
2023-04-12T17:23:38.091Z,1.50
2023-04-12T17:28:41.822Z,1.73
2023-04-12T17:33:45.341Z,1.45
2023-04-12T17:38:48.151Z,2.40
2023-04-12T17:43:51.119Z,1.50
2023-04-12T17:48:53.851Z,1.30
2023-04-12T17:54:00.850Z,1.83
2023-04-12T17:59:05.867Z,1.70
2023-04-12T18:04:09.661Z,1.30
2023-04-12T18:09:13.155Z,1.33
2023-04-12T18:14:16.312Z,1.05
2023-04-12T18:19:19.505Z,1.20
2023-04-12T18:24:23.589Z,1.58
2023-04-12T18:29:26.853Z,1.45
2023-04-12T18:34:30.807Z,1.20
2023-04-12T18:39:36.211Z,1.10
2023-04-12T18:44:42.406Z,1.05
2023-04-12T18:49:46.019Z,1.20
2023-04-12T18:54:48.768Z,1.30
2023-04-12T18:59:51.650Z,1.40
2023-04-12T19:04:55.762Z,1.88
2023-04-12T19:09:58.497Z,2.45
2023-04-12T19:15:01.988Z,2.28
2023-04-12T19:20:08.247Z,2.13
2023-04-12T19:25:12.569Z,2.08
2023-04-12T19:30:17.286Z,3.58
2023-04-12T19:35:20.259Z,1.27
2023-04-12T19:40:22.977Z,0.88
2023-04-12T19:45:27.926Z,1.33
2023-04-12T19:50:31.429Z,1.92
2023-04-12T19:55:34.174Z,1.95
2023-04-12T20:00:39.570Z,0.98
2023-04-12T20:05:46.416Z,1.60
2023-04-12T20:10:49.972Z,1.50
2023-04-12T20:15:52.980Z,1.98
2023-04-12T20:26:02.844Z,1.25
2023-04-12T20:31:06.365Z,1.40
2023-04-12T20:36:10.236Z,1.40
2023-04-12T20:41:13.406Z,1.27
2023-04-12T20:46:19.526Z,1.10
2023-04-12T20:51:22.750Z,1.00
2023-04-12T20:56:27.052Z,1.50
2023-04-12T21:06:34.683Z,1.42
2023-04-12T21:11:37.940Z,1.98
2023-04-12T21:16:54.543Z,1.30
2023-04-12T21:22:01.269Z,1.20
2023-04-12T21:27:06.962Z,1.30
2023-04-12T21:32:10.252Z,1.17
2023-04-12T21:37:13.379Z,1.08
2023-04-12T21:42:15.915Z,1.00
2023-04-12T21:47:19.812Z,1.15
2023-04-12T21:52:22.503Z,1.33
2023-04-12T21:57:25.244Z,1.13
2023-04-12T22:02:28.284Z,1.30
2023-04-12T22:07:30.985Z,1.52
2023-04-12T22:12:34.145Z,1.30
2023-04-12T22:17:37.869Z,0.85
2023-04-12T22:22:41.046Z,1.00
2023-04-12T22:27:46.796Z,1.88
2023-04-12T22:32:49.534Z,1.30
2023-04-12T22:38:12.583Z,1.15
2023-04-12T22:43:21.115Z,1.50
2023-04-12T22:48:25.230Z,1.40
2023-04-12T22:53:46.910Z,1.65
2023-04-12T22:58:49.520Z,1.85
2023-04-12T23:03:52.275Z,1.58
2023-04-12T23:08:55.012Z,1.05
2023-04-12T23:14:18.165Z,1.85
2023-04-12T23:19:21.019Z,1.48
2023-04-12T23:24:42.551Z,1.77
2023-04-12T23:30:04.911Z,2.17
2023-04-12T23:35:08.016Z,1.90
2023-04-12T23:40:30.765Z,1.80
2023-04-12T23:45:33.291Z,1.77
2023-04-12T23:50:36.976Z,1.92
2023-04-12T23:55:40.258Z,1.83
